Time;durP1;ratioP1;P1;durP2;ratioP2;P2;SDS_P1;SDS_P2;PMS_P1;PMS_P2;Temp;Humidity;BMP_temperature;BMP_pressure;BME280_temperature;BME280_humidity;BME280_pressure;Samples;Min_cycle;Max_cycle;Signal;HPM_P1;HPM_P2
2021/12/26 00:01:38;;;;;;;16.40;8.77;;;-1.50;99.90;;;;;;4971017;28;20460;-76
2021/12/26 00:04:06;;;;;;;14.33;8.63;;;-1.70;99.90;;;;;;4974020;28;20483;-76
2021/12/26 00:06:33;;;;;;;16.97;9.50;;;-1.60;99.90;;;;;;4973677;28;20512;-76
2021/12/26 00:09:01;;;;;;;14.90;9.43;;;-1.60;99.90;;;;;;4974067;28;20862;-75
2021/12/26 00:11:28;;;;;;;16.20;10.00;;;-1.70;99.90;;;;;;4960858;28;20463;-76
2021/12/26 00:13:55;;;;;;;16.03;9.30;;;-1.70;99.90;;;;;;4956902;28;20661;-76
2021/12/26 00:16:22;;;;;;;17.43;9.80;;;-1.80;99.90;;;;;;4971131;28;20472;-76
2021/12/26 00:18:49;;;;;;;17.30;8.73;;;-1.80;99.90;;;;;;4974156;28;20514;-76
2021/12/26 00:21:18;;;;;;;19.77;9.97;;;-1.80;99.90;;;;;;4966078;28;20484;-75
2021/12/26 00:23:46;;;;;;;20.03;9.47;;;-1.80;99.90;;;;;;4954390;28;21240;-76
2021/12/26 00:26:14;;;;;;;22.90;9.03;;;-1.80;99.90;;;;;;4954138;28;20536;-76
2021/12/26 00:28:41;;;;;;;16.23;9.43;;;-1.80;99.90;;;;;;4954461;28;20457;-76
2021/12/26 00:31:08;;;;;;;14.77;8.67;;;-1.80;99.90;;;;;;4955142;28;20824;-76
2021/12/26 00:33:35;;;;;;;16.60;9.67;;;-1.80;99.90;;;;;;4954290;28;21016;-76
2021/12/26 00:36:02;;;;;;;18.30;9.67;;;-1.80;99.90;;;;;;4953927;29;20559;-76
2021/12/26 00:38:30;;;;;;;14.40;9.30;;;-1.80;99.90;;;;;;4954313;28;20511;-76
2021/12/26 00:40:57;;;;;;;20.30;9.87;;;-1.80;99.90;;;;;;4958159;28;20605;-75
2021/12/26 00:43:26;;;;;;;16.97;8.40;;;-1.90;99.90;;;;;;4961070;28;20484;-76
2021/12/26 00:45:53;;;;;;;15.80;8.93;;;-1.90;99.90;;;;;;4961671;28;20493;-75
2021/12/26 00:48:19;;;;;;;17.37;9.37;;;-2.00;99.90;;;;;;4960602;28;20456;-76
2021/12/26 00:50:46;;;;;;;14.93;9.10;;;-2.00;99.90;;;;;;4966366;28;20531;-76
2021/12/26 00:53:13;;;;;;;19.20;10.50;;;-2.00;99.90;;;;;;4955023;28;20460;-75
2021/12/26 00:55:40;;;;;;;17.10;9.53;;;-2.00;99.90;;;;;;4953526;28;20480;-76
2021/12/26 00:58:08;;;;;;;18.47;9.40;;;-2.00;99.90;;;;;;4960614;28;20464;-76
2021/12/26 01:00:40;;;;;;;20.13;10.50;;;-2.10;99.90;;;;;;4966993;28;20468;-76
2021/12/26 01:03:08;;;;;;;17.17;10.57;;;-2.10;99.90;;;;;;4954957;28;20461;-76
2021/12/26 01:05:37;;;;;;;27.03;11.83;;;-2.10;99.90;;;;;;4953212;28;20496;-76
2021/12/26 01:08:08;;;;;;;20.83;10.30;;;-2.10;99.90;;;;;;4953858;28;20953;-76
2021/12/26 01:10:40;;;;;;;18.20;10.37;;;-2.10;99.90;;;;;;4954272;28;20488;-76
2021/12/26 01:13:15;;;;;;;18.10;8.90;;;-2.10;99.90;;;;;;4956803;28;20488;-76
2021/12/26 01:15:45;;;;;;;16.67;9.83;;;-2.10;99.90;;;;;;4953060;28;20476;-76
2021/12/26 01:18:12;;;;;;;18.77;10.10;;;-2.10;99.90;;;;;;4953549;28;20457;-76
2021/12/26 01:20:45;;;;;;;17.23;9.17;;;-2.10;99.90;;;;;;4959141;28;20461;-75
2021/12/26 01:23:14;;;;;;;19.40;10.00;;;-2.00;99.90;;;;;;4972792;28;20441;-75
2021/12/26 01:25:41;;;;;;;20.53;10.83;;;-2.10;99.90;;;;;;4970637;28;20483;-74
2021/12/26 01:28:08;;;;;;;19.70;10.13;;;-2.10;99.90;;;;;;4972358;28;20464;-76
2021/12/26 01:30:38;;;;;;;15.73;9.07;;;-2.10;99.90;;;;;;4966314;28;20458;-74
2021/12/26 01:33:07;;;;;;;16.77;9.20;;;-2.10;99.90;;;;;;4962371;28;20452;-74
2021/12/26 01:35:34;;;;;;;18.03;10.50;;;-2.10;99.90;;;;;;4970930;28;20558;-74
2021/12/26 01:38:01;;;;;;;18.77;10.27;;;-2.10;99.90;;;;;;4971903;28;20448;-74
2021/12/26 01:40:28;;;;;;;21.57;10.30;;;-2.10;99.90;;;;;;4971407;28;20526;-74
2021/12/26 01:43:00;;;;;;;17.73;10.00;;;-2.10;99.90;;;;;;4960913;28;20952;-74
2021/12/26 01:45:26;;;;;;;18.70;9.47;;;-2.10;99.90;;;;;;4971924;28;20526;-74
2021/12/26 01:47:57;;;;;;;23.07;11.30;;;-2.10;99.90;;;;;;4956593;28;20875;-74
2021/12/26 01:50:26;;;;;;;20.93;9.87;;;-2.10;99.90;;;;;;4954187;28;20475;-74
2021/12/26 01:52:52;;;;;;;20.70;11.33;;;-2.10;99.90;;;;;;4954894;28;20453;-74
2021/12/26 01:55:25;;;;;;;19.43;10.33;;;-2.00;99.90;;;;;;4952666;29;20523;-75
2021/12/26 01:57:53;;;;;;;19.90;10.70;;;-2.10;99.90;;;;;;4956723;28;20884;-74
2021/12/26 02:00:21;;;;;;;18.80;10.13;;;-2.10;99.90;;;;;;4968996;28;20456;-74
2021/12/26 02:02:49;;;;;;;17.60;10.43;;;-2.10;99.90;;;;;;4965149;28;20463;-77
2021/12/26 02:05:16;;;;;;;26.20;11.47;;;-2.00;99.90;;;;;;4971272;28;20519;-76
2021/12/26 02:07:44;;;;;;;19.63;10.10;;;-2.10;99.90;;;;;;4971865;28;20458;-74
2021/12/26 02:10:11;;;;;;;24.60;11.33;;;-2.00;99.90;;;;;;4971735;28;20518;-74
2021/12/26 02:12:38;;;;;;;19.13;10.30;;;-2.00;99.90;;;;;;4971550;28;20868;-74
2021/12/26 02:15:05;;;;;;;15.93;9.97;;;-2.10;99.90;;;;;;4964550;28;20867;-75
2021/12/26 02:17:32;;;;;;;23.50;12.30;;;-2.10;99.90;;;;;;4952470;28;20461;-75
2021/12/26 02:20:17;;;;;;;16.70;9.83;;;-2.10;99.90;;;;;;4952609;28;20541;-75
2021/12/26 02:22:49;;;;;;;19.77;10.30;;;-2.00;99.90;;;;;;4952381;29;20507;-75
2021/12/26 02:25:29;;;;;;;19.13;10.67;;;-2.10;99.90;;;;;;4958031;28;20511;-75
2021/12/26 02:27:55;;;;;;;18.60;9.90;;;-2.10;99.90;;;;;;4952374;28;20952;-75
2021/12/26 02:30:23;;;;;;;22.27;10.90;;;-2.10;99.90;;;;;;4967239;28;20458;-75
2021/12/26 02:32:51;;;;;;;18.63;10.47;;;-2.10;99.90;;;;;;4970963;28;20200;-76
2021/12/26 02:35:20;;;;;;;18.70;10.83;;;-2.20;99.90;;;;;;4968871;28;20496;-75
2021/12/26 02:37:47;;;;;;;20.10;11.00;;;-2.20;99.90;;;;;;4971395;28;20448;-75
2021/12/26 02:40:16;;;;;;;22.17;10.63;;;-2.20;99.90;;;;;;4964985;28;20465;-75
2021/12/26 02:42:43;;;;;;;19.80;10.73;;;-2.20;99.90;;;;;;4961861;28;20535;-75
2021/12/26 02:45:10;;;;;;;18.83;10.07;;;-2.20;99.90;;;;;;4970093;28;20515;-75
2021/12/26 02:47:39;;;;;;;18.33;10.77;;;-2.20;99.90;;;;;;4970887;28;20997;-75
2021/12/26 02:50:09;;;;;;;17.93;9.73;;;-2.20;99.90;;;;;;4969657;28;20831;-75
2021/12/26 02:52:37;;;;;;;19.50;9.90;;;-2.20;99.90;;;;;;4960277;28;20452;-75
2021/12/26 02:55:04;;;;;;;16.70;9.70;;;-2.20;99.90;;;;;;4971289;28;20452;-75
2021/12/26 02:57:31;;;;;;;17.20;9.47;;;-2.20;99.90;;;;;;4962142;28;20461;-75
2021/12/26 03:00:01;;;;;;;17.73;10.50;;;-2.30;99.90;;;;;;4952044;29;20540;-76
2021/12/26 03:02:28;;;;;;;21.73;10.47;;;-2.30;99.90;;;;;;4953074;28;20531;-76
2021/12/26 03:04:55;;;;;;;19.07;10.70;;;-2.30;99.90;;;;;;4952517;28;20961;-75
2021/12/26 03:07:21;;;;;;;23.73;10.63;;;-2.40;99.90;;;;;;4952378;28;20465;-76
2021/12/26 03:09:58;;;;;;;19.97;11.00;;;-2.40;99.90;;;;;;4952166;28;20556;-76
2021/12/26 03:12:24;;;;;;;21.83;10.30;;;-2.50;99.90;;;;;;4955847;28;20467;-76
2021/12/26 03:14:51;;;;;;;20.13;10.60;;;-2.50;99.90;;;;;;4955331;29;20484;-75
2021/12/26 03:17:18;;;;;;;16.80;9.87;;;-2.40;99.90;;;;;;4958211;28;20534;-75
2021/12/26 03:19:45;;;;;;;21.00;10.20;;;-2.40;99.90;;;;;;4968691;28;20513;-75
2021/12/26 03:22:12;;;;;;;17.57;9.77;;;-2.40;99.90;;;;;;4956449;28;20465;-75
2021/12/26 03:24:39;;;;;;;18.20;10.00;;;-2.30;99.90;;;;;;4955636;28;20516;-76
2021/12/26 03:27:07;;;;;;;18.67;10.43;;;-2.40;99.90;;;;;;4955037;28;20932;-76
2021/12/26 03:29:35;;;;;;;18.50;10.07;;;-2.40;99.90;;;;;;4971618;28;20460;-76
2021/12/26 03:32:02;;;;;;;17.87;9.70;;;-2.40;99.90;;;;;;4967504;28;20456;-75
2021/12/26 03:34:29;;;;;;;21.47;10.20;;;-2.50;99.90;;;;;;4956370;28;20577;-76
2021/12/26 03:36:56;;;;;;;23.33;10.83;;;-2.50;99.90;;;;;;4954896;28;20480;-75
2021/12/26 03:39:23;;;;;;;21.80;11.40;;;-2.50;99.90;;;;;;4956148;28;20471;-75
2021/12/26 03:41:51;;;;;;;17.87;10.80;;;-2.50;99.90;;;;;;4964513;28;20514;-76
2021/12/26 03:44:19;;;;;;;22.47;10.23;;;-2.40;99.90;;;;;;4972681;28;20590;-75
2021/12/26 03:46:46;;;;;;;18.30;10.43;;;-2.40;99.90;;;;;;4974008;28;20491;-76
2021/12/26 03:49:12;;;;;;;22.97;10.37;;;-2.40;99.90;;;;;;4973848;28;20456;-76
2021/12/26 03:51:39;;;;;;;18.20;10.30;;;-2.40;99.90;;;;;;4972780;28;20956;-76
2021/12/26 03:54:07;;;;;;;19.23;10.17;;;-2.30;99.90;;;;;;4968300;28;20520;-76
2021/12/26 03:56:34;;;;;;;18.57;10.10;;;-2.50;99.90;;;;;;4960634;28;20974;-75
2021/12/26 03:59:01;;;;;;;15.57;9.30;;;-2.50;99.90;;;;;;4972095;28;20511;-75
2021/12/26 04:01:29;;;;;;;23.80;10.57;;;-2.50;99.90;;;;;;4973582;28;20490;-75
2021/12/26 04:03:56;;;;;;;16.60;9.27;;;-2.30;99.90;;;;;;4973841;28;20951;-75
2021/12/26 04:06:23;;;;;;;20.40;10.30;;;-2.50;99.90;;;;;;4973607;28;20491;-75
2021/12/26 04:08:49;;;;;;;17.30;10.07;;;-2.50;99.90;;;;;;4961188;28;20457;-75
2021/12/26 04:11:16;;;;;;;18.03;9.67;;;-2.50;99.90;;;;;;4955791;28;20489;-75
2021/12/26 04:13:45;;;;;;;19.20;10.90;;;-2.60;99.90;;;;;;4973480;28;20464;-75
2021/12/26 04:16:11;;;;;;;19.53;11.27;;;-2.80;99.90;;;;;;4971551;28;20472;-75
2021/12/26 04:18:40;;;;;;;15.90;9.73;;;-2.50;99.90;;;;;;4954216;29;20473;-75
2021/12/26 04:21:07;;;;;;;17.43;10.30;;;-2.50;99.90;;;;;;4955036;28;20453;-75
2021/12/26 04:23:34;;;;;;;16.87;9.60;;;-2.50;99.90;;;;;;4967850;28;20465;-75
2021/12/26 04:26:01;;;;;;;18.03;9.77;;;-2.50;99.90;;;;;;4961037;28;20552;-75
2021/12/26 04:28:28;;;;;;;16.13;10.53;;;-2.50;99.90;;;;;;4971906;28;20519;-76
2021/12/26 04:30:55;;;;;;;19.07;10.00;;;-2.50;99.90;;;;;;4973625;28;20461;-75
2021/12/26 04:33:22;;;;;;;18.83;10.03;;;-2.50;99.90;;;;;;4970479;28;20543;-76
2021/12/26 04:35:50;;;;;;;21.93;10.10;;;-2.50;99.90;;;;;;4973188;28;20476;-77
2021/12/26 04:38:16;;;;;;;21.13;10.27;;;-2.50;99.90;;;;;;4963924;28;20460;-77
2021/12/26 04:40:43;;;;;;;18.73;11.07;;;-2.50;99.90;;;;;;4960708;28;20484;-77
2021/12/26 04:43:10;;;;;;;17.70;9.70;;;-2.50;99.90;;;;;;4964868;28;20460;-77
2021/12/26 04:45:36;;;;;;;14.97;9.80;;;-2.50;99.90;;;;;;4953651;29;20499;-77
2021/12/26 04:48:03;;;;;;;19.40;11.10;;;-2.60;99.90;;;;;;4953899;28;21016;-77
2021/12/26 04:50:31;;;;;;;16.80;10.20;;;-2.50;99.90;;;;;;4954111;28;20465;-78
2021/12/26 04:52:59;;;;;;;19.30;10.50;;;-2.50;99.90;;;;;;4954988;28;20461;-77
2021/12/26 04:55:28;;;;;;;17.97;10.00;;;-2.60;99.90;;;;;;4970521;28;20535;-77
2021/12/26 04:57:55;;;;;;;19.37;10.47;;;-1.50;99.90;;;;;;4959691;28;20957;-77
2021/12/26 05:00:26;;;;;;;20.30;10.57;;;-2.50;99.90;;;;;;4963098;28;20464;-77
2021/12/26 05:02:54;;;;;;;18.50;9.23;;;-2.60;99.90;;;;;;4973420;28;20469;-76
2021/12/26 05:05:21;;;;;;;17.73;9.97;;;-2.60;99.90;;;;;;4972467;28;20480;-78
2021/12/26 05:07:49;;;;;;;17.30;9.50;;;-2.60;99.90;;;;;;4960514;28;20473;-77
2021/12/26 05:10:18;;;;;;;25.10;11.00;;;-2.60;99.90;;;;;;4953489;28;20457;-77
2021/12/26 05:12:45;;;;;;;19.03;10.93;;;-2.50;99.90;;;;;;4961665;28;21253;-78
2021/12/26 05:15:16;;;;;;;17.80;9.70;;;-2.60;99.90;;;;;;4957171;28;21114;-76
2021/12/26 05:17:43;;;;;;;20.60;9.67;;;-2.70;99.90;;;;;;4934316;29;20469;-77
2021/12/26 05:20:12;;;;;;;14.97;9.43;;;-2.60;99.90;;;;;;4934686;28;20454;-76
2021/12/26 05:22:40;;;;;;;17.90;9.80;;;-2.70;99.90;;;;;;4934114;29;20450;-77
2021/12/26 05:25:08;;;;;;;19.93;9.70;;;-2.60;99.90;;;;;;4934002;29;20490;-77
2021/12/26 05:27:36;;;;;;;21.07;9.93;;;-2.70;99.90;;;;;;4953366;28;20499;-77
2021/12/26 05:30:05;;;;;;;23.83;9.63;;;-2.60;99.90;;;;;;4952741;28;20457;-77
2021/12/26 05:32:32;;;;;;;15.00;8.73;;;-2.60;99.90;;;;;;4952886;28;20516;-77
2021/12/26 05:34:58;;;;;;;18.07;10.10;;;-2.70;99.90;;;;;;4956247;28;20464;-77
2021/12/26 05:37:25;;;;;;;18.87;10.20;;;-2.60;99.90;;;;;;4970118;28;20835;-78
2021/12/26 05:39:52;;;;;;;20.13;10.50;;;-2.60;99.90;;;;;;4972132;28;20456;-77
2021/12/26 05:42:18;;;;;;;22.13;10.53;;;-2.60;99.90;;;;;;4971376;28;20511;-77
2021/12/26 05:44:48;;;;;;;19.87;10.30;;;-2.60;99.90;;;;;;4971688;28;21022;-77
2021/12/26 05:47:15;;;;;;;19.80;10.47;;;-2.60;99.90;;;;;;4971878;28;20542;-77
2021/12/26 05:49:42;;;;;;;16.60;10.20;;;-2.50;99.90;;;;;;4946719;28;20515;-78
2021/12/26 05:52:09;;;;;;;17.97;9.70;;;-2.50;99.90;;;;;;4955629;28;20524;-78
2021/12/26 05:54:36;;;;;;;22.03;11.33;;;-2.50;99.90;;;;;;4952818;28;20460;-77
2021/12/26 05:57:04;;;;;;;17.10;9.73;;;-2.50;99.90;;;;;;4952028;29;20930;-77
2021/12/26 05:59:31;;;;;;;16.60;10.10;;;-2.50;99.90;;;;;;4961397;28;20511;-77
2021/12/26 06:01:59;;;;;;;23.53;10.10;;;-2.50;99.90;;;;;;4952592;28;20508;-78
2021/12/26 06:04:26;;;;;;;21.30;10.30;;;-2.50;99.90;;;;;;4962359;28;20468;-77
2021/12/26 06:06:52;;;;;;;20.73;11.27;;;-2.40;99.90;;;;;;4972036;28;20496;-77
2021/12/26 06:09:19;;;;;;;18.57;9.83;;;-2.40;99.90;;;;;;4971334;28;20463;-77
2021/12/26 06:11:46;;;;;;;16.93;9.43;;;-2.50;99.90;;;;;;4971878;28;20460;-77
2021/12/26 06:14:13;;;;;;;20.00;10.80;;;-2.40;99.90;;;;;;4965139;28;20453;-77
2021/12/26 06:16:40;;;;;;;23.17;10.27;;;-2.50;99.90;;;;;;4953053;28;20879;-77
2021/12/26 06:19:08;;;;;;;21.63;9.83;;;-2.60;99.90;;;;;;4953054;28;20469;-77
2021/12/26 06:21:34;;;;;;;17.10;10.20;;;-2.60;99.90;;;;;;4952612;28;20512;-78
2021/12/26 06:24:01;;;;;;;15.10;9.20;;;-2.60;99.90;;;;;;4953715;28;20445;-77
2021/12/26 06:26:29;;;;;;;17.10;10.10;;;-2.60;99.90;;;;;;4952147;29;20493;-78
2021/12/26 06:28:56;;;;;;;19.33;11.27;;;-2.60;99.90;;;;;;4952524;29;20560;-77
2021/12/26 06:31:22;;;;;;;22.57;10.83;;;-2.60;99.90;;;;;;4959371;28;20570;-77
2021/12/26 06:33:49;;;;;;;15.93;9.50;;;-2.60;99.90;;;;;;4971627;28;20505;-77
2021/12/26 06:36:18;;;;;;;17.07;10.00;;;-2.50;99.90;;;;;;4963153;28;20547;-77
2021/12/26 06:38:46;;;;;;;21.33;10.30;;;-2.50;99.90;;;;;;4952589;29;20527;-77
2021/12/26 06:41:14;;;;;;;18.40;9.70;;;-2.50;99.90;;;;;;4957396;28;20457;-77
2021/12/26 06:43:42;;;;;;;23.17;11.30;;;-2.50;99.90;;;;;;4952358;29;20493;-78
2021/12/26 06:46:09;;;;;;;20.07;10.13;;;-2.50;99.90;;;;;;4968380;28;20496;-77
2021/12/26 06:48:38;;;;;;;17.43;10.50;;;-2.50;99.90;;;;;;4975136;28;20507;-77
2021/12/26 06:51:05;;;;;;;20.70;11.13;;;-2.40;99.90;;;;;;4975199;28;20460;-77
2021/12/26 06:53:33;;;;;;;17.23;9.27;;;-2.50;99.90;;;;;;4975042;28;20459;-78
2021/12/26 06:56:00;;;;;;;19.50;10.33;;;-2.50;99.90;;;;;;4974684;28;20471;-76
2021/12/26 06:58:27;;;;;;;17.17;9.87;;;-2.50;99.90;;;;;;4962203;28;20888;-78
2021/12/26 07:00:53;;;;;;;21.30;11.23;;;-2.50;99.90;;;;;;4975253;28;20502;-78
2021/12/26 07:03:20;;;;;;;22.90;11.07;;;-2.50;99.90;;;;;;4958954;28;20503;-77
2021/12/26 07:05:47;;;;;;;21.00;10.20;;;-2.50;99.90;;;;;;4955864;28;20476;-77
2021/12/26 07:08:13;;;;;;;17.40;9.80;;;-2.50;99.90;;;;;;4963467;28;20495;-78
2021/12/26 07:10:43;;;;;;;19.50;10.60;;;-2.50;99.90;;;;;;4957578;28;20465;-78
2021/12/26 07:13:09;;;;;;;19.67;10.50;;;-2.40;99.90;;;;;;4960708;28;20833;-78
2021/12/26 07:15:36;;;;;;;19.53;10.70;;;-2.40;99.90;;;;;;4955878;28;20503;-77
2021/12/26 07:18:04;;;;;;;20.60;10.30;;;-2.40;99.90;;;;;;4961602;28;20514;-78
2021/12/26 07:20:31;;;;;;;20.40;10.37;;;-2.30;99.90;;;;;;4974769;28;20510;-78
2021/12/26 07:22:58;;;;;;;16.67;8.93;;;-2.30;99.90;;;;;;4974687;28;20463;-77
2021/12/26 07:25:24;;;;;;;18.30;9.63;;;-2.30;99.90;;;;;;4974734;28;20550;-78
2021/12/26 07:27:52;;;;;;;22.53;11.00;;;-2.40;99.90;;;;;;4960088;28;20516;-77
2021/12/26 07:30:19;;;;;;;22.17;10.60;;;-2.40;99.90;;;;;;4972858;28;21000;-78
2021/12/26 07:32:46;;;;;;;19.17;10.53;;;-2.40;99.90;;;;;;4974583;28;20464;-79
2021/12/26 07:35:13;;;;;;;17.00;9.70;;;-2.30;99.90;;;;;;4973343;28;20452;-78
2021/12/26 07:37:40;;;;;;;17.90;10.17;;;-2.20;99.90;;;;;;4958286;28;20458;-77
2021/12/26 07:40:08;;;;;;;22.23;11.00;;;-2.20;99.90;;;;;;4958157;28;20944;-77
2021/12/26 07:42:34;;;;;;;15.67;9.40;;;-2.20;99.90;;;;;;4973797;28;20452;-76
2021/12/26 07:45:03;;;;;;;19.27;11.00;;;-2.10;99.90;;;;;;4971129;28;20888;-77
2021/12/26 07:47:29;;;;;;;20.47;10.40;;;-2.20;99.90;;;;;;4971783;28;20491;-75
2021/12/26 07:49:56;;;;;;;18.07;10.80;;;-2.20;99.90;;;;;;4964718;28;20528;-77
2021/12/26 07:52:28;;;;;;;23.27;12.50;;;-2.20;99.90;;;;;;4954968;28;20490;-76
2021/12/26 07:54:55;;;;;;;23.50;11.83;;;-2.20;99.90;;;;;;4965472;28;20464;-77
2021/12/26 07:57:22;;;;;;;20.60;10.30;;;-2.20;99.90;;;;;;4965581;28;20457;-76
2021/12/26 07:59:48;;;;;;;19.17;10.80;;;-2.20;99.90;;;;;;4955458;28;20464;-76
2021/12/26 08:02:20;;;;;;;21.27;11.37;;;-2.10;99.90;;;;;;4955477;28;20504;-76
2021/12/26 08:04:47;;;;;;;18.40;10.43;;;-2.20;99.90;;;;;;4954620;29;20504;-76
2021/12/26 08:07:14;;;;;;;20.67;10.30;;;-2.20;99.90;;;;;;4956080;28;20579;-76
2021/12/26 08:09:40;;;;;;;20.77;11.67;;;-2.20;99.90;;;;;;4955271;28;20468;-76
2021/12/26 08:12:08;;;;;;;21.50;10.27;;;-2.20;99.90;;;;;;4958171;28;20535;-76
2021/12/26 08:14:35;;;;;;;20.87;10.80;;;-2.20;99.90;;;;;;4973701;28;20448;-78
2021/12/26 08:17:03;;;;;;;17.27;10.80;;;-2.20;99.90;;;;;;4968713;28;20528;-77
2021/12/26 08:19:31;;;;;;;20.33;10.73;;;-2.30;99.90;;;;;;4955129;28;20491;-77
2021/12/26 08:21:58;;;;;;;18.43;10.00;;;-2.30;99.90;;;;;;4956306;28;20457;-78
2021/12/26 08:24:26;;;;;;;20.40;10.47;;;-2.30;99.90;;;;;;4965380;28;20960;-76
2021/12/26 08:26:53;;;;;;;19.33;11.40;;;-2.30;99.90;;;;;;4970400;28;20499;-77
2021/12/26 08:29:21;;;;;;;20.37;10.90;;;-2.30;99.90;;;;;;4971848;28;20495;-77
2021/12/26 08:31:49;;;;;;;20.07;10.77;;;-2.10;99.90;;;;;;4974046;28;20456;-79
2021/12/26 08:34:19;;;;;;;20.80;10.63;;;-2.20;99.90;;;;;;4965143;28;20899;-83
2021/12/26 08:36:49;;;;;;;19.43;10.73;;;-2.20;99.90;;;;;;4959155;28;20481;-83
2021/12/26 08:39:16;;;;;;;19.03;10.03;;;-2.10;99.90;;;;;;4962734;28;20545;-84
2021/12/26 08:41:43;;;;;;;20.23;10.97;;;-2.00;99.90;;;;;;4968261;28;20457;-82
2021/12/26 08:44:16;;;;;;;22.00;11.17;;;-2.00;99.90;;;;;;4953934;28;20753;-79
2021/12/26 08:46:43;;;;;;;19.77;10.13;;;-1.90;99.90;;;;;;4953108;28;20856;-79
2021/12/26 08:49:10;;;;;;;20.97;11.47;;;-1.80;99.90;;;;;;4955413;28;20488;-78
2021/12/26 08:51:37;;;;;;;19.63;11.00;;;-1.80;99.90;;;;;;4953247;28;20457;-77
2021/12/26 08:54:05;;;;;;;19.30;10.60;;;-1.80;99.90;;;;;;4954995;28;20492;-80
2021/12/26 08:56:31;;;;;;;28.87;12.57;;;-1.70;99.90;;;;;;4953860;28;20535;-76
2021/12/26 08:58:58;;;;;;;22.53;11.53;;;-1.50;99.90;;;;;;4968428;28;20515;-79
2021/12/26 09:01:25;;;;;;;23.37;11.83;;;-1.50;99.90;;;;;;4976827;28;20518;-79
2021/12/26 09:03:51;;;;;;;24.97;11.57;;;-1.40;99.90;;;;;;4975083;28;20448;-78
2021/12/26 09:06:18;;;;;;;23.20;11.33;;;-1.50;99.90;;;;;;4960154;28;21000;-79
2021/12/26 09:08:45;;;;;;;28.43;10.60;;;-1.50;99.90;;;;;;4955540;28;21055;-77
2021/12/26 09:11:13;;;;;;;23.07;10.60;;;-1.50;99.90;;;;;;4954067;28;20456;-76
2021/12/26 09:13:39;;;;;;;19.67;11.07;;;-1.50;99.90;;;;;;4958277;28;20463;-76
2021/12/26 09:16:06;;;;;;;27.37;12.67;;;-1.50;99.90;;;;;;4953302;29;20524;-77
2021/12/26 09:18:33;;;;;;;22.93;11.60;;;-1.50;99.90;;;;;;4954432;28;20449;-78
2021/12/26 09:21:00;;;;;;;25.43;12.77;;;-1.40;99.90;;;;;;4954157;29;20875;-76
2021/12/26 09:23:27;;;;;;;22.73;11.77;;;-1.30;99.90;;;;;;4953137;28;20486;-77
2021/12/26 09:25:53;;;;;;;23.90;12.30;;;-1.20;99.90;;;;;;4953401;28;20477;-78
2021/12/26 09:28:21;;;;;;;27.60;12.70;;;-1.20;99.90;;;;;;4962226;28;20485;-77
2021/12/26 09:30:48;;;;;;;27.17;13.37;;;-1.10;99.90;;;;;;4968252;28;20543;-78
2021/12/26 09:33:19;;;;;;;24.87;11.77;;;-1.10;99.90;;;;;;4953319;29;20603;-79
2021/12/26 09:35:46;;;;;;;22.10;11.77;;;-1.00;99.90;;;;;;4975131;28;20585;-80
2021/12/26 09:38:13;;;;;;;22.57;11.97;;;-0.90;99.90;;;;;;4971399;28;20536;-78
2021/12/26 09:40:40;;;;;;;21.70;11.70;;;-0.80;99.90;;;;;;4975023;28;20464;-81
2021/12/26 09:43:07;;;;;;;21.30;11.70;;;-0.60;99.90;;;;;;4967917;28;21008;-81
2021/12/26 09:45:35;;;;;;;26.00;12.60;;;-1.00;99.90;;;;;;4972904;28;20479;-80
2021/12/26 09:48:02;;;;;;;27.33;11.20;;;-1.00;99.90;;;;;;4974468;28;20473;-80
2021/12/26 09:50:28;;;;;;;26.37;11.97;;;-0.90;99.90;;;;;;4974377;28;20449;-80
2021/12/26 09:52:55;;;;;;;25.13;13.40;;;-0.90;99.90;;;;;;4965158;29;20515;-81
2021/12/26 09:55:26;;;;;;;17.53;11.10;;;-1.10;99.90;;;;;;4969598;28;20487;-81
2021/12/26 09:57:53;;;;;;;23.20;12.50;;;-0.70;99.90;;;;;;4967561;28;20461;-81
2021/12/26 10:00:22;;;;;;;25.20;11.70;;;-0.70;99.90;;;;;;4982727;28;20834;-81
2021/12/26 10:03:09;;;;;;;23.47;12.57;;;-0.70;99.90;;;;;;4964207;28;20457;-78
2021/12/26 10:05:58;;;;;;;22.07;12.33;;;-0.70;99.90;;;;;;4964484;28;21011;-81
2021/12/26 10:08:25;;;;;;;22.00;11.87;;;-0.60;99.90;;;;;;4943567;28;20488;-78
2021/12/26 10:11:12;;;;;;;23.53;12.23;;;-0.50;99.90;;;;;;4955263;28;20448;-78
2021/12/26 10:13:41;;;;;;;21.87;12.00;;;-0.70;99.90;;;;;;4972214;28;20879;-78
2021/12/26 10:16:08;;;;;;;24.00;12.67;;;-0.70;99.90;;;;;;4973722;28;20582;-76
2021/12/26 10:18:39;;;;;;;22.00;12.50;;;-0.70;99.90;;;;;;4956402;28;20445;-76
2021/12/26 10:21:38;;;;;;;23.70;12.50;;;-0.80;99.90;;;;;;4940930;28;20499;-78
2021/12/26 10:24:08;;;;;;;26.13;13.23;;;-0.90;99.90;;;;;;4960304;28;20456;-78
2021/12/26 10:26:38;;;;;;;22.30;12.83;;;-0.90;99.90;;;;;;4967068;28;20488;-78
2021/12/26 10:29:13;;;;;;;23.80;11.80;;;-1.00;99.90;;;;;;4947232;28;20559;-77
2021/12/26 10:31:45;;;;;;;28.47;13.53;;;-1.00;99.90;;;;;;4952591;29;20453;-77
2021/12/26 10:34:19;;;;;;;24.80;12.83;;;-1.00;99.90;;;;;;4956825;28;20516;-81
2021/12/26 10:36:49;;;;;;;26.73;12.47;;;-1.00;99.90;;;;;;4955583;28;20511;-86
2021/12/26 10:39:18;;;;;;;26.77;13.20;;;-1.00;99.90;;;;;;4961854;28;20453;-83
2021/12/26 10:41:48;;;;;;;24.50;12.53;;;-0.90;99.90;;;;;;4968668;28;20487;-81
2021/12/26 10:44:24;;;;;;;30.87;13.97;;;-0.80;99.90;;;;;;4963261;28;20464;-81
2021/12/26 10:46:53;;;;;;;27.90;12.80;;;-0.80;99.90;;;;;;4955581;28;20469;-80
2021/12/26 10:49:48;;;;;;;22.87;12.30;;;-0.70;99.90;;;;;;4970358;28;20513;-84
2021/12/26 10:52:22;;;;;;;33.73;14.33;;;-0.70;99.90;;;;;;4934602;28;20469;-82
2021/12/26 10:55:00;;;;;;;24.10;13.07;;;-0.60;99.90;;;;;;4957603;28;20465;-82
2021/12/26 10:57:29;;;;;;;25.87;13.10;;;-0.60;99.90;;;;;;4956661;28;20886;-82
2021/12/26 11:00:08;;;;;;;26.80;13.77;;;-0.60;99.90;;;;;;4956809;28;20460;-81
2021/12/26 11:02:36;;;;;;;24.77;13.00;;;-0.60;99.90;;;;;;4959884;29;20508;-81
2021/12/26 11:05:09;;;;;;;24.00;13.23;;;-0.50;99.90;;;;;;4957356;28;20467;-82
2021/12/26 11:07:45;;;;;;;25.40;13.27;;;-0.50;99.90;;;;;;4949334;28;20638;-82
2021/12/26 11:10:15;;;;;;;22.93;12.50;;;-0.40;99.90;;;;;;4959593;28;20452;-81
2021/12/26 11:12:47;;;;;;;29.20;14.37;;;-0.40;99.90;;;;;;4976159;28;20456;-82
2021/12/26 11:15:15;;;;;;;23.10;12.87;;;-0.40;99.90;;;;;;4979231;28;20472;-81
2021/12/26 11:17:45;;;;;;;23.73;12.33;;;-0.40;99.90;;;;;;4969035;28;20449;-82
2021/12/26 11:20:28;;;;;;;24.20;12.97;;;-0.30;99.90;;;;;;4960014;29;20457;-81
2021/12/26 11:22:56;;;;;;;21.90;12.43;;;-0.30;99.90;;;;;;4959979;28;20459;-82
2021/12/26 11:25:24;;;;;;;25.63;13.40;;;-0.30;99.90;;;;;;4959043;28;20480;-82
2021/12/26 11:27:51;;;;;;;28.87;13.20;;;-0.20;99.90;;;;;;4968964;28;20511;-81
2021/12/26 11:30:19;;;;;;;23.23;13.17;;;-0.30;99.90;;;;;;4978914;28;20940;-82
2021/12/26 11:32:46;;;;;;;26.60;13.60;;;-0.30;99.90;;;;;;4964355;28;20467;-81
2021/12/26 11:35:13;;;;;;;26.50;13.70;;;-0.30;99.90;;;;;;4962547;28;20461;-81
2021/12/26 11:37:41;;;;;;;21.87;12.60;;;-0.40;99.90;;;;;;4972820;28;20460;-81
2021/12/26 11:40:11;;;;;;;27.70;14.73;;;-0.30;99.90;;;;;;4990240;28;20445;-81
2021/12/26 11:43:09;;;;;;;22.93;13.17;;;-0.30;99.90;;;;;;4969887;28;20445;-81
2021/12/26 11:45:42;;;;;;;30.77;14.20;;;-0.30;99.90;;;;;;4962960;28;20476;-81
2021/12/26 11:48:46;;;;;;;27.10;13.83;;;-0.30;99.90;;;;;;4963302;28;20573;-81
2021/12/26 11:51:38;;;;;;;25.80;13.47;;;-0.30;99.90;;;;;;4963027;28;20467;-81
2021/12/26 11:54:38;;;;;;;26.33;14.17;;;-0.40;99.90;;;;;;4963928;28;20457;-81
2021/12/26 11:57:44;;;;;;;23.47;12.57;;;-0.30;99.90;;;;;;4970748;28;20469;-81
2021/12/26 12:00:14;;;;;;;24.30;13.93;;;-0.30;99.90;;;;;;4906832;29;20488;-82
2021/12/26 12:02:43;;;;;;;22.60;12.80;;;-0.20;99.90;;;;;;4964621;28;21459;-80
2021/12/26 12:05:13;;;;;;;25.57;13.77;;;-0.20;99.90;;;;;;4958973;28;20497;-72
2021/12/26 12:07:49;;;;;;;31.37;14.60;;;0.00;99.90;;;;;;4957739;28;20994;-72
2021/12/26 12:10:40;;;;;;;24.53;13.43;;;0.30;99.90;;;;;;4950337;28;20452;-72
2021/12/26 12:13:07;;;;;;;26.30;13.17;;;0.70;99.90;;;;;;4963054;28;20570;-70
2021/12/26 12:15:51;;;;;;;23.10;12.47;;;1.00;99.90;;;;;;4966497;28;21018;-70
2021/12/26 12:18:22;;;;;;;26.57;13.80;;;1.20;99.90;;;;;;4967607;28;20941;-70
2021/12/26 12:21:07;;;;;;;24.57;13.33;;;1.30;99.90;;;;;;4955171;29;20507;-70
2021/12/26 12:23:34;;;;;;;22.45;13.90;;;1.40;99.90;;;;;;4954843;28;20448;-80
2021/12/26 12:26:02;;;;;;;24.07;13.03;;;1.40;99.90;;;;;;4956021;28;20282;-82
2021/12/26 12:28:32;;;;;;;23.97;13.20;;;1.30;99.90;;;;;;4959132;28;20544;-81
2021/12/26 12:31:16;;;;;;;24.27;13.97;;;1.10;99.90;;;;;;4953203;29;20456;-76
2021/12/26 12:33:44;;;;;;;21.33;12.60;;;1.00;99.90;;;;;;4952280;28;20888;-76
2021/12/26 12:36:13;;;;;;;23.40;13.50;;;0.80;99.90;;;;;;4953461;28;20493;-80
2021/12/26 12:38:42;;;;;;;27.37;14.80;;;0.70;99.90;;;;;;4967119;28;20514;-81
2021/12/26 12:41:38;;;;;;;23.27;13.40;;;0.60;99.90;;;;;;4971696;28;20469;-79